createdAt,value
2023-05-04T00:00:50.036Z,12.00
2023-05-04T00:03:18.230Z,12.00
2023-05-04T00:05:46.092Z,11.90
2023-05-04T00:08:13.735Z,11.90
2023-05-04T00:10:41.685Z,11.90
2023-05-04T00:13:09.526Z,11.80
2023-05-04T00:15:37.493Z,11.90
2023-05-04T00:18:05.351Z,11.70
2023-05-04T00:20:33.494Z,11.70
2023-05-04T00:23:01.180Z,11.70
2023-05-04T00:25:28.764Z,11.70
2023-05-04T00:27:56.469Z,11.70
2023-05-04T00:30:24.254Z,11.60
2023-05-04T00:32:51.890Z,11.50
2023-05-04T00:35:19.573Z,11.40
2023-05-04T00:37:47.179Z,11.50
2023-05-04T00:40:14.900Z,11.70
2023-05-04T00:42:42.457Z,11.70
2023-05-04T00:45:10.815Z,11.70
2023-05-04T00:47:38.653Z,11.50
2023-05-04T00:50:07.102Z,11.50
2023-05-04T00:52:35.361Z,11.40
2023-05-04T00:55:03.520Z,11.50
2023-05-04T00:57:31.251Z,11.50
2023-05-04T00:59:59.031Z,11.50
2023-05-04T01:02:26.824Z,11.50
2023-05-04T01:04:54.684Z,11.40
2023-05-04T01:07:46.629Z,11.50
2023-05-04T01:10:27.569Z,11.30
2023-05-04T01:13:07.620Z,11.40
2023-05-04T01:15:36.382Z,11.50
2023-05-04T01:18:04.204Z,11.40
2023-05-04T01:20:34.850Z,11.50
2023-05-04T01:23:04.064Z,11.40
2023-05-04T01:25:40.114Z,11.30
2023-05-04T01:28:12.623Z,11.30
2023-05-04T01:30:44.995Z,11.30
2023-05-04T01:33:13.059Z,11.30
2023-05-04T01:35:41.309Z,11.30
2023-05-04T01:38:09.365Z,11.30
2023-05-04T01:40:37.035Z,11.30
2023-05-04T01:43:04.793Z,11.20
2023-05-04T01:45:32.562Z,11.30
2023-05-04T01:48:00.302Z,11.30
2023-05-04T01:50:28.111Z,11.30
2023-05-04T01:52:55.825Z,11.40
2023-05-04T01:55:23.461Z,11.40
2023-05-04T01:57:51.192Z,11.50
2023-05-04T02:00:19.453Z,11.30
2023-05-04T02:02:47.232Z,11.30
2023-05-04T02:05:18.864Z,11.30
2023-05-04T02:07:46.526Z,11.20
2023-05-04T02:10:14.201Z,11.10
2023-05-04T02:12:43.151Z,11.20
2023-05-04T02:15:11.303Z,11.20
2023-05-04T02:17:39.033Z,11.20
2023-05-04T02:20:07.488Z,11.10
2023-05-04T02:22:36.102Z,11.20
2023-05-04T02:25:03.749Z,11.10
2023-05-04T02:27:31.700Z,11.10
2023-05-04T02:29:59.644Z,11.00
2023-05-04T02:32:27.654Z,11.20
2023-05-04T02:34:55.359Z,11.10
2023-05-04T02:37:22.974Z,11.20
2023-05-04T02:39:50.718Z,11.30
2023-05-04T02:42:19.657Z,11.30
2023-05-04T02:44:47.417Z,11.20
2023-05-04T02:47:15.071Z,11.30
2023-05-04T02:49:42.805Z,11.30
2023-05-04T02:52:11.646Z,11.40
2023-05-04T02:54:39.371Z,11.40
2023-05-04T02:57:07.170Z,11.30
2023-05-04T02:59:34.895Z,11.40
2023-05-04T03:02:02.730Z,10.90
2023-05-04T03:04:30.830Z,10.80
2023-05-04T03:06:58.491Z,10.90
2023-05-04T03:09:26.188Z,10.90
2023-05-04T03:11:53.923Z,11.00
2023-05-04T03:14:21.658Z,11.10
2023-05-04T03:16:49.499Z,11.10
2023-05-04T03:19:19.131Z,11.10
2023-05-04T03:21:47.368Z,11.10
2023-05-04T03:24:17.456Z,11.10
2023-05-04T03:26:45.449Z,11.10
2023-05-04T03:29:13.262Z,11.10
2023-05-04T03:31:41.551Z,11.00
2023-05-04T03:34:12.830Z,11.00
2023-05-04T03:36:42.077Z,11.00
2023-05-04T03:39:09.938Z,10.90
2023-05-04T03:41:37.739Z,10.90
2023-05-04T03:44:05.484Z,10.90
2023-05-04T03:46:33.200Z,10.90
2023-05-04T03:49:01.255Z,10.90
2023-05-04T03:51:29.655Z,10.90
2023-05-04T03:53:57.314Z,10.80
2023-05-04T03:56:24.978Z,10.60
2023-05-04T03:58:52.660Z,10.70
2023-05-04T04:01:25.266Z,10.70
2023-05-04T04:03:53.140Z,10.80
2023-05-04T04:06:22.707Z,10.70
2023-05-04T04:08:50.929Z,10.70
2023-05-04T04:11:18.665Z,10.80
2023-05-04T04:13:46.314Z,10.90
2023-05-04T04:16:13.954Z,10.80
2023-05-04T04:18:41.620Z,10.80
2023-05-04T04:21:10.514Z,10.80
2023-05-04T04:23:38.292Z,10.80
2023-05-04T04:26:08.737Z,10.80
2023-05-04T04:28:36.847Z,10.90
2023-05-04T04:31:04.694Z,11.00
2023-05-04T04:33:32.711Z,11.00
2023-05-04T04:36:00.342Z,11.00
2023-05-04T04:38:27.948Z,10.90
2023-05-04T04:40:55.702Z,11.00
2023-05-04T04:43:23.294Z,11.00
2023-05-04T04:45:50.899Z,11.10
2023-05-04T04:48:21.644Z,11.10
2023-05-04T04:50:49.366Z,11.10
2023-05-04T04:53:19.618Z,11.10
2023-05-04T04:55:47.865Z,11.20
2023-05-04T04:58:15.509Z,11.10
2023-05-04T05:00:43.198Z,11.10
2023-05-04T05:03:11.350Z,11.20
2023-05-04T05:05:39.127Z,11.20
2023-05-04T05:08:06.762Z,11.20
2023-05-04T05:10:34.455Z,11.40
2023-05-04T05:13:02.299Z,11.90
2023-05-04T05:15:29.959Z,12.30
2023-05-04T05:17:57.630Z,12.90
2023-05-04T05:20:25.484Z,12.90
2023-05-04T05:22:53.343Z,13.10
2023-05-04T05:25:21.065Z,13.20
2023-05-04T05:27:49.108Z,13.40
2023-05-04T05:30:16.923Z,13.30
2023-05-04T05:32:45.973Z,13.70
2023-05-04T05:35:15.370Z,14.00
2023-05-04T05:37:43.150Z,14.20
2023-05-04T05:40:11.454Z,14.30
2023-05-04T05:42:39.253Z,14.00
2023-05-04T05:45:08.135Z,14.50
2023-05-04T05:47:37.010Z,14.80
2023-05-04T05:50:05.569Z,15.30
2023-05-04T05:52:33.706Z,15.50
2023-05-04T05:55:02.568Z,15.70
2023-05-04T05:57:30.960Z,15.50
2023-05-04T05:59:59.003Z,15.50
2023-05-04T06:02:26.877Z,14.80
2023-05-04T06:04:54.629Z,15.20
2023-05-04T06:07:23.773Z,14.80
2023-05-04T06:09:51.536Z,14.30
2023-05-04T06:12:19.348Z,14.10
2023-05-04T06:14:48.101Z,14.10
2023-05-04T06:17:15.776Z,13.90
2023-05-04T06:19:43.456Z,13.70
2023-05-04T06:22:11.115Z,13.70
2023-05-04T06:24:38.797Z,13.70
2023-05-04T06:27:06.468Z,13.70
2023-05-04T06:29:36.487Z,13.90
2023-05-04T06:32:04.703Z,14.10
2023-05-04T06:34:32.489Z,14.20
2023-05-04T06:37:00.618Z,14.50
2023-05-04T06:39:28.389Z,15.10
2023-05-04T06:41:56.152Z,15.40
2023-05-04T06:44:23.997Z,15.30
2023-05-04T06:46:51.733Z,15.00
2023-05-04T06:49:19.351Z,14.90
2023-05-04T06:51:47.084Z,14.90
2023-05-04T06:54:14.870Z,14.60
2023-05-04T06:56:42.961Z,14.90
2023-05-04T06:59:10.763Z,15.00
2023-05-04T07:01:38.794Z,15.30
2023-05-04T07:04:06.814Z,15.10
2023-05-04T07:06:35.040Z,15.30
2023-05-04T07:09:03.032Z,15.30
2023-05-04T07:11:31.144Z,15.20
2023-05-04T07:13:59.652Z,15.30
2023-05-04T07:16:27.316Z,15.50
2023-05-04T07:18:54.999Z,16.30
2023-05-04T07:21:28.383Z,15.90
2023-05-04T07:23:56.846Z,15.90
2023-05-04T07:26:24.607Z,15.90
2023-05-04T07:28:52.470Z,16.10
2023-05-04T07:31:20.260Z,16.10
2023-05-04T07:33:48.306Z,16.00
2023-05-04T07:36:16.647Z,15.40
2023-05-04T07:38:44.320Z,15.60
2023-05-04T07:41:12.117Z,15.50
2023-05-04T07:43:39.828Z,15.80
2023-05-04T07:46:07.507Z,16.20
2023-05-04T07:48:35.783Z,15.60
2023-05-04T07:51:03.906Z,15.80
2023-05-04T07:53:31.535Z,15.50
2023-05-04T07:56:08.666Z,15.40
2023-05-04T07:58:38.148Z,15.70
2023-05-04T08:01:06.068Z,15.60
2023-05-04T08:03:33.918Z,15.70
2023-05-04T08:06:02.173Z,15.70
2023-05-04T08:08:29.939Z,15.80
2023-05-04T08:11:07.922Z,15.80
2023-05-04T08:13:40.832Z,16.10
2023-05-04T08:16:10.630Z,16.30
2023-05-04T08:18:38.689Z,16.60
2023-05-04T08:21:06.845Z,16.50
2023-05-04T08:23:34.563Z,16.20
2023-05-04T08:26:06.249Z,16.30
2023-05-04T08:28:40.130Z,16.40
2023-05-04T08:31:08.149Z,16.30
2023-05-04T08:33:35.759Z,16.50
2023-05-04T08:36:07.132Z,16.30
2023-05-04T08:38:35.558Z,16.50
2023-05-04T08:41:04.665Z,16.50
2023-05-04T08:43:36.694Z,16.60
2023-05-04T08:46:06.273Z,17.10
2023-05-04T08:48:37.187Z,17.20
2023-05-04T08:51:07.427Z,17.60
2023-05-04T08:53:37.749Z,17.90
2023-05-04T08:56:09.821Z,17.60
2023-05-04T08:58:43.949Z,16.80
2023-05-04T09:01:12.801Z,17.40
2023-05-04T09:03:41.433Z,17.40
2023-05-04T09:06:11.690Z,17.50
2023-05-04T09:08:40.117Z,17.50
2023-05-04T09:11:08.201Z,17.80
2023-05-04T09:13:36.662Z,17.90
2023-05-04T09:16:04.544Z,18.10
2023-05-04T09:18:39.922Z,18.60
2023-05-04T09:21:08.391Z,17.90
2023-05-04T09:23:50.043Z,18.10
2023-05-04T09:26:30.792Z,18.00
2023-05-04T09:29:11.477Z,17.80
2023-05-04T09:31:46.012Z,17.30
2023-05-04T09:34:17.409Z,17.90
2023-05-04T09:36:45.002Z,18.20
2023-05-04T09:39:13.916Z,18.20
2023-05-04T09:41:42.165Z,18.30
2023-05-04T09:44:22.547Z,18.40
2023-05-04T09:46:57.981Z,18.30
2023-05-04T09:49:36.472Z,18.20
2023-05-04T09:52:05.843Z,18.30
2023-05-04T09:54:35.322Z,18.10
2023-05-04T09:57:10.069Z,18.10
2023-05-04T09:59:38.408Z,17.70
2023-05-04T10:02:21.729Z,17.50
2023-05-04T10:04:52.308Z,18.00
2023-05-04T10:07:21.087Z,17.90
2023-05-04T10:09:50.474Z,18.20
2023-05-04T10:12:18.570Z,18.30
2023-05-04T10:14:47.335Z,18.10
2023-05-04T10:17:42.274Z,18.20
2023-05-04T10:20:46.117Z,18.30
2023-05-04T10:23:32.694Z,18.30
2023-05-04T10:26:24.271Z,18.30
2023-05-04T10:29:06.417Z,18.40
2023-05-04T10:31:41.323Z,18.40
2023-05-04T10:34:09.717Z,18.40
2023-05-04T10:36:42.346Z,18.60
2023-05-04T10:39:21.086Z,18.50
2023-05-04T10:42:06.653Z,18.80
2023-05-04T10:44:49.778Z,18.30
2023-05-04T10:47:32.685Z,18.10
2023-05-04T10:50:07.546Z,18.20
2023-05-04T10:52:48.978Z,18.20
2023-05-04T10:55:17.457Z,18.40
2023-05-04T10:57:50.522Z,18.60
2023-05-04T11:00:19.091Z,18.30
2023-05-04T11:02:48.007Z,18.30
2023-05-04T11:05:19.772Z,18.40
2023-05-04T11:07:50.868Z,18.40
2023-05-04T11:10:26.301Z,18.40
2023-05-04T11:13:02.224Z,18.40
2023-05-04T11:15:32.690Z,18.40
2023-05-04T11:18:00.843Z,18.30
2023-05-04T11:20:28.580Z,18.10
2023-05-04T11:22:56.252Z,18.00
2023-05-04T11:25:28.643Z,18.10
2023-05-04T11:27:58.256Z,18.10
2023-05-04T11:30:36.137Z,18.30
2023-05-04T11:33:12.465Z,18.10
2023-05-04T11:35:42.329Z,18.20
2023-05-04T11:38:11.060Z,18.00
2023-05-04T11:40:41.167Z,18.10
2023-05-04T11:43:12.118Z,18.20
2023-05-04T11:45:42.708Z,18.30
2023-05-04T11:48:30.251Z,18.20
2023-05-04T11:50:58.867Z,17.90
2023-05-04T11:53:26.968Z,17.60
2023-05-04T11:56:01.724Z,17.40
2023-05-04T11:58:29.786Z,17.90
2023-05-04T12:00:58.476Z,17.60
2023-05-04T12:03:39.654Z,17.70
2023-05-04T12:06:17.059Z,17.80
2023-05-04T12:08:44.751Z,18.00
2023-05-04T12:11:21.622Z,18.10
2023-05-04T12:14:01.773Z,17.80
2023-05-04T12:16:29.714Z,18.10
2023-05-04T12:19:08.493Z,18.20
2023-05-04T12:21:36.947Z,18.00
2023-05-04T12:24:06.031Z,18.10
2023-05-04T12:26:33.731Z,18.10
2023-05-04T12:29:01.444Z,18.20
2023-05-04T12:31:30.736Z,18.20
2023-05-04T12:33:58.513Z,18.40
2023-05-04T12:36:26.146Z,18.40
2023-05-04T12:38:53.971Z,18.50
2023-05-04T12:41:21.642Z,18.40
2023-05-04T12:43:49.930Z,18.30
2023-05-04T12:46:21.524Z,18.50
2023-05-04T12:48:49.244Z,19.00
2023-05-04T12:51:17.051Z,19.30
2023-05-04T12:53:44.705Z,19.30
2023-05-04T12:56:12.421Z,19.00
2023-05-04T12:58:40.084Z,19.00
2023-05-04T13:01:08.364Z,18.90
2023-05-04T13:03:36.025Z,19.20
2023-05-04T13:06:04.509Z,19.20
2023-05-04T13:08:33.655Z,19.20
2023-05-04T13:11:01.334Z,19.20
2023-05-04T13:13:29.655Z,19.90
2023-05-04T13:15:58.094Z,20.00
2023-05-04T13:18:27.615Z,19.80
2023-05-04T13:20:56.196Z,19.90
2023-05-04T13:23:24.218Z,19.80
2023-05-04T13:25:52.368Z,19.50
2023-05-04T13:28:19.968Z,19.10
2023-05-04T13:30:48.462Z,19.20
2023-05-04T13:33:29.027Z,19.30
2023-05-04T13:35:58.661Z,19.40
2023-05-04T13:38:27.169Z,19.40
2023-05-04T13:40:56.110Z,19.20
2023-05-04T13:43:24.993Z,18.80
2023-05-04T13:45:52.708Z,18.70
2023-05-04T13:48:20.795Z,18.70
2023-05-04T13:50:48.641Z,18.60
2023-05-04T13:53:16.291Z,18.60
2023-05-04T13:55:44.587Z,18.80
2023-05-04T13:58:12.290Z,18.70
2023-05-04T14:00:40.326Z,18.50
2023-05-04T14:03:07.965Z,18.60
2023-05-04T14:05:35.880Z,18.60
2023-05-04T14:08:04.016Z,18.70
2023-05-04T14:10:31.750Z,18.50
2023-05-04T14:12:59.500Z,18.40
2023-05-04T14:15:27.694Z,18.60
2023-05-04T14:17:55.380Z,18.50
2023-05-04T14:20:23.280Z,18.30
2023-05-04T14:22:51.590Z,18.30
2023-05-04T14:25:19.152Z,18.40
2023-05-04T14:27:46.918Z,18.30
2023-05-04T14:30:15.168Z,18.20
2023-05-04T14:32:42.922Z,18.30
2023-05-04T14:35:11.229Z,18.10
2023-05-04T14:37:40.174Z,18.30
2023-05-04T14:40:09.820Z,18.00
2023-05-04T14:42:38.530Z,17.90
2023-05-04T14:45:08.467Z,18.40
2023-05-04T14:47:36.581Z,18.70
2023-05-04T14:50:05.331Z,18.80
2023-05-04T14:52:33.163Z,18.60
2023-05-04T14:55:00.806Z,18.40
2023-05-04T14:57:28.371Z,18.10
2023-05-04T14:59:55.964Z,18.30
2023-05-04T15:02:23.672Z,18.20
2023-05-04T15:04:51.395Z,18.40
2023-05-04T15:07:21.019Z,18.20
2023-05-04T15:09:48.815Z,18.20
2023-05-04T15:12:17.981Z,18.20
2023-05-04T15:14:48.665Z,18.30
2023-05-04T15:17:18.157Z,18.40
2023-05-04T15:19:47.191Z,18.60
2023-05-04T15:22:15.082Z,18.90
2023-05-04T15:24:42.667Z,18.80
2023-05-04T15:27:10.424Z,18.90
2023-05-04T15:29:38.084Z,18.80
2023-05-04T15:32:06.071Z,18.90
2023-05-04T15:34:33.776Z,18.90
2023-05-04T15:37:01.437Z,19.10
2023-05-04T15:39:29.274Z,19.30
2023-05-04T15:41:57.104Z,19.00
2023-05-04T15:44:26.126Z,18.90
2023-05-04T15:46:54.010Z,18.80
2023-05-04T15:49:21.611Z,18.70
2023-05-04T15:51:49.320Z,18.60
2023-05-04T15:54:17.011Z,19.00
2023-05-04T15:56:45.060Z,18.50
2023-05-04T15:59:12.753Z,18.70
2023-05-04T16:01:40.669Z,18.80
2023-05-04T16:04:08.304Z,18.90
2023-05-04T16:06:36.098Z,18.60
2023-05-04T16:09:04.197Z,18.40
2023-05-04T16:11:33.240Z,18.20
2023-05-04T16:14:01.033Z,18.10
2023-05-04T16:16:28.705Z,18.40
2023-05-04T16:18:56.323Z,18.50
2023-05-04T16:21:24.282Z,18.00
2023-05-04T16:23:52.140Z,18.40
2023-05-04T16:26:19.923Z,18.10
2023-05-04T16:28:47.474Z,18.10
2023-05-04T16:31:15.818Z,18.10
2023-05-04T16:33:47.397Z,18.10
2023-05-04T16:36:17.324Z,17.70
2023-05-04T16:38:45.050Z,17.70
2023-05-04T16:41:12.652Z,17.60
2023-05-04T16:43:40.300Z,17.70
2023-05-04T16:46:07.989Z,17.60
2023-05-04T16:48:38.150Z,17.60
2023-05-04T16:51:06.031Z,17.50
2023-05-04T16:53:34.486Z,17.30
2023-05-04T16:56:02.355Z,17.20
2023-05-04T16:58:30.098Z,17.00
2023-05-04T17:01:00.355Z,17.10
2023-05-04T17:03:28.026Z,17.00
2023-05-04T17:05:55.994Z,16.90
2023-05-04T17:08:25.111Z,16.90
2023-05-04T17:10:52.729Z,16.70
2023-05-04T17:13:20.712Z,16.60
2023-05-04T17:15:50.713Z,16.60
2023-05-04T17:18:18.449Z,16.40
2023-05-04T17:20:46.335Z,16.40
2023-05-04T17:23:13.913Z,16.60
2023-05-04T17:25:42.790Z,16.50
2023-05-04T17:28:10.538Z,16.50
2023-05-04T17:30:42.105Z,16.40
2023-05-04T17:33:10.279Z,16.20
2023-05-04T17:35:37.945Z,16.20
2023-05-04T17:38:05.873Z,16.20
2023-05-04T17:40:34.604Z,16.00
2023-05-04T17:43:02.318Z,16.00
2023-05-04T17:45:30.009Z,16.00
2023-05-04T17:47:58.243Z,15.90
2023-05-04T17:50:26.271Z,15.80
2023-05-04T17:52:55.304Z,15.80
2023-05-04T17:55:26.187Z,15.70
2023-05-04T17:57:54.705Z,15.50
2023-05-04T18:00:23.172Z,15.50
2023-05-04T18:02:51.078Z,15.50
2023-05-04T18:05:19.398Z,15.40
2023-05-04T18:07:47.234Z,15.50
2023-05-04T18:10:14.944Z,15.50
2023-05-04T18:12:43.063Z,15.30
2023-05-04T18:15:11.251Z,15.20
2023-05-04T18:17:39.272Z,15.20
2023-05-04T18:20:09.265Z,15.20
2023-05-04T18:22:37.639Z,15.10
2023-05-04T18:25:05.923Z,15.10
2023-05-04T18:27:34.926Z,14.80
2023-05-04T18:30:04.215Z,14.70
2023-05-04T18:32:34.035Z,14.70
2023-05-04T18:35:02.500Z,14.80
2023-05-04T18:37:31.478Z,14.70
2023-05-04T18:39:59.619Z,14.50
2023-05-04T18:42:27.748Z,14.40
2023-05-04T18:44:56.296Z,14.40
2023-05-04T18:47:24.064Z,14.40
2023-05-04T18:49:53.785Z,14.40
2023-05-04T18:52:22.683Z,14.40
2023-05-04T18:54:51.342Z,14.40
2023-05-04T18:57:20.127Z,14.40
2023-05-04T18:59:48.097Z,14.30
2023-05-04T19:02:16.497Z,14.30
2023-05-04T19:04:47.137Z,14.30
2023-05-04T19:07:15.737Z,14.20
2023-05-04T19:09:46.161Z,14.00
2023-05-04T19:12:14.344Z,13.80
2023-05-04T19:14:44.724Z,13.60
2023-05-04T19:17:14.713Z,13.50
2023-05-04T19:19:42.620Z,13.70
2023-05-04T19:22:11.776Z,13.80
2023-05-04T19:24:39.593Z,13.90
2023-05-04T19:27:08.150Z,13.80
2023-05-04T19:29:35.773Z,13.60
2023-05-04T19:32:12.048Z,13.60
2023-05-04T19:34:43.792Z,13.50
2023-05-04T19:37:11.440Z,13.30
2023-05-04T19:39:39.026Z,13.30
2023-05-04T19:42:06.706Z,13.30
2023-05-04T19:44:35.336Z,13.20
2023-05-04T19:47:03.554Z,13.20
2023-05-04T19:49:31.175Z,13.10
2023-05-04T19:51:59.266Z,13.10
2023-05-04T19:54:27.437Z,13.00
2023-05-04T19:56:55.989Z,12.80
2023-05-04T19:59:24.084Z,12.80
2023-05-04T20:01:52.284Z,12.70
2023-05-04T20:04:19.963Z,12.60
2023-05-04T20:06:47.539Z,12.60
2023-05-04T20:09:15.228Z,12.70
2023-05-04T20:11:44.029Z,12.70
2023-05-04T20:14:11.629Z,12.70
2023-05-04T20:16:39.451Z,12.70
2023-05-04T20:19:09.941Z,12.70
2023-05-04T20:21:39.280Z,12.50
2023-05-04T20:24:07.476Z,12.40
2023-05-04T20:26:35.377Z,12.50
2023-05-04T20:29:03.072Z,12.60
2023-05-04T20:31:31.006Z,12.70
2023-05-04T20:33:58.672Z,12.50
2023-05-04T20:36:26.278Z,12.40
2023-05-04T20:38:54.039Z,12.40
2023-05-04T20:41:25.589Z,12.40
2023-05-04T20:43:53.172Z,12.40
2023-05-04T20:46:20.791Z,12.30
2023-05-04T20:48:48.499Z,12.40
2023-05-04T20:51:17.240Z,12.60
2023-05-04T20:53:44.932Z,12.70
2023-05-04T20:56:13.013Z,12.70
2023-05-04T20:58:40.995Z,12.70
2023-05-04T21:01:09.221Z,12.70
2023-05-04T21:03:37.201Z,12.80
2023-05-04T21:06:06.130Z,12.80
2023-05-04T21:08:34.935Z,12.90
2023-05-04T21:11:02.569Z,12.80
2023-05-04T21:13:30.461Z,12.80
2023-05-04T21:15:59.674Z,12.80
2023-05-04T21:18:27.514Z,12.80
2023-05-04T21:20:55.374Z,12.80
2023-05-04T21:23:25.097Z,12.60
2023-05-04T21:26:01.505Z,12.50
2023-05-04T21:28:29.930Z,12.60
2023-05-04T21:30:58.100Z,12.70
2023-05-04T21:33:26.401Z,12.60
2023-05-04T21:35:54.037Z,12.60
2023-05-04T21:38:22.421Z,12.60
2023-05-04T21:40:50.208Z,12.70
2023-05-04T21:43:17.886Z,12.60
2023-05-04T21:45:45.402Z,12.70
2023-05-04T21:48:13.493Z,12.80
2023-05-04T21:50:41.235Z,12.80
2023-05-04T21:53:08.797Z,12.80
2023-05-04T21:55:36.666Z,12.80
2023-05-04T21:58:04.307Z,12.70
2023-05-04T22:00:31.950Z,12.70
2023-05-04T22:02:59.678Z,12.70
2023-05-04T22:05:27.279Z,12.60
2023-05-04T22:07:55.241Z,12.50
2023-05-04T22:10:22.953Z,12.50
2023-05-04T22:12:50.498Z,12.50
2023-05-04T22:15:18.158Z,12.40
2023-05-04T22:17:45.854Z,12.50
2023-05-04T22:20:13.997Z,12.40
2023-05-04T22:22:41.576Z,12.40
2023-05-04T22:25:09.483Z,12.30
2023-05-04T22:27:37.022Z,12.20
2023-05-04T22:30:05.030Z,12.10
2023-05-04T22:32:32.710Z,12.00
2023-05-04T22:35:00.410Z,11.90
2023-05-04T22:37:28.051Z,11.90
2023-05-04T22:39:55.624Z,12.00
2023-05-04T22:42:23.277Z,11.90
2023-05-04T22:44:50.822Z,11.80
2023-05-04T22:47:18.447Z,11.80
2023-05-04T22:49:46.107Z,11.60
2023-05-04T22:52:13.796Z,11.70
2023-05-04T22:54:41.437Z,11.60
2023-05-04T22:57:09.837Z,11.40
2023-05-04T22:59:37.378Z,11.40
2023-05-04T23:02:05.132Z,11.40
2023-05-04T23:04:32.827Z,11.40
2023-05-04T23:07:00.709Z,11.30
2023-05-04T23:09:28.580Z,11.40
2023-05-04T23:11:56.185Z,11.40
2023-05-04T23:14:23.794Z,11.30
2023-05-04T23:16:51.487Z,11.40
2023-05-04T23:19:19.426Z,11.30
2023-05-04T23:21:47.096Z,11.20
2023-05-04T23:24:15.198Z,11.20
2023-05-04T23:26:42.713Z,11.30
2023-05-04T23:29:10.562Z,11.20
2023-05-04T23:31:38.133Z,11.20
2023-05-04T23:34:06.026Z,11.10
2023-05-04T23:36:33.642Z,11.00
2023-05-04T23:39:01.244Z,11.00
2023-05-04T23:41:28.952Z,11.00
2023-05-04T23:43:58.690Z,10.90
2023-05-04T23:46:26.329Z,10.80
2023-05-04T23:48:54.038Z,10.80
2023-05-04T23:51:21.656Z,10.80
2023-05-04T23:53:49.410Z,10.80
2023-05-04T23:56:17.629Z,10.90
2023-05-04T23:58:45.254Z,10.90
